sensor_id;sensor_type;location;lat;lon;timestamp;pressure;altitude;pressure_sealevel;temperature;humidity
65758;BME280;52495;52.208;5.158;2023-03-04T00:01:25;102654.16;;;6.24;75.29
65758;BME280;52495;52.208;5.158;2023-03-04T00:03:52;102661.81;;;6.22;75.99
65758;BME280;52495;52.208;5.158;2023-03-04T00:06:19;102659.28;;;6.24;74.96
65758;BME280;52495;52.208;5.158;2023-03-04T00:08:45;102650.47;;;6.14;75.91
65758;BME280;52495;52.208;5.158;2023-03-04T00:11:12;102657.31;;;6.15;75.20
65758;BME280;52495;52.208;5.158;2023-03-04T00:13:39;102659.16;;;6.19;75.91
65758;BME280;52495;52.208;5.158;2023-03-04T00:16:06;102657.31;;;6.15;76.03
65758;BME280;52495;52.208;5.158;2023-03-04T00:18:34;102664.63;;;6.03;76.06
65758;BME280;52495;52.208;5.158;2023-03-04T00:21:01;102656.31;;;6.10;75.27
65758;BME280;52495;52.208;5.158;2023-03-04T00:23:27;102654.09;;;6.21;75.73
65758;BME280;52495;52.208;5.158;2023-03-04T00:25:54;102660.16;;;6.23;76.37
65758;BME280;52495;52.208;5.158;2023-03-04T00:28:21;102658.81;;;6.08;75.77
65758;BME280;52495;52.208;5.158;2023-03-04T00:30:49;102654.59;;;6.09;75.98
65758;BME280;52495;52.208;5.158;2023-03-04T00:33:16;102660.72;;;6.14;75.76
65758;BME280;52495;52.208;5.158;2023-03-04T00:35:44;102664.13;;;6.13;76.73
65758;BME280;52495;52.208;5.158;2023-03-04T00:38:11;102654.53;;;6.07;76.99
65758;BME280;52495;52.208;5.158;2023-03-04T00:40:37;102663.34;;;6.16;75.59
65758;BME280;52495;52.208;5.158;2023-03-04T00:43:04;102661.63;;;6.16;76.13
65758;BME280;52495;52.208;5.158;2023-03-04T00:45:31;102660.78;;;6.16;74.67
65758;BME280;52495;52.208;5.158;2023-03-04T00:47:58;102656.69;;;6.22;74.72
65758;BME280;52495;52.208;5.158;2023-03-04T00:50:24;102659.16;;;6.19;74.39
65758;BME280;52495;52.208;5.158;2023-03-04T00:52:52;102658.78;;;6.07;75.02
65758;BME280;52495;52.208;5.158;2023-03-04T00:55:19;102659.94;;;6.17;75.05
65758;BME280;52495;52.208;5.158;2023-03-04T00:57:46;102660.56;;;6.10;74.18
65758;BME280;52495;52.208;5.158;2023-03-04T01:00:14;102665.19;;;5.94;74.70
65758;BME280;52495;52.208;5.158;2023-03-04T01:02:41;102664.59;;;5.75;76.29
65758;BME280;52495;52.208;5.158;2023-03-04T01:05:08;102671.25;;;5.96;75.45
65758;BME280;52495;52.208;5.158;2023-03-04T01:07:35;102667.00;;;5.97;75.20
65758;BME280;52495;52.208;5.158;2023-03-04T01:10:05;102665.56;;;6.05;74.83
65758;BME280;52495;52.208;5.158;2023-03-04T01:12:32;102665.28;;;5.97;74.13
65758;BME280;52495;52.208;5.158;2023-03-04T01:14:59;102668.25;;;6.10;74.16
65758;BME280;52495;52.208;5.158;2023-03-04T01:17:26;102666.38;;;6.04;74.49
65758;BME280;52495;52.208;5.158;2023-03-04T01:19:52;102657.06;;;6.06;75.54
65758;BME280;52495;52.208;5.158;2023-03-04T01:22:19;102648.13;;;5.95;75.50
65758;BME280;52495;52.208;5.158;2023-03-04T01:24:46;102645.94;;;6.05;75.25
65758;BME280;52495;52.208;5.158;2023-03-04T01:27:15;102649.88;;;5.96;76.51
65758;BME280;52495;52.208;5.158;2023-03-04T01:29:42;102642.63;;;6.10;75.46
65758;BME280;52495;52.208;5.158;2023-03-04T01:32:09;102644.25;;;6.07;75.28
65758;BME280;52495;52.208;5.158;2023-03-04T01:34:36;102643.13;;;5.99;76.23
65758;BME280;52495;52.208;5.158;2023-03-04T01:37:03;102634.06;;;6.09;75.87
65758;BME280;52495;52.208;5.158;2023-03-04T01:39:29;102636.03;;;5.90;75.80
65758;BME280;52495;52.208;5.158;2023-03-04T01:41:57;102630.69;;;5.84;77.18
65758;BME280;52495;52.208;5.158;2023-03-04T01:44:25;102638.47;;;5.86;77.42
65758;BME280;52495;52.208;5.158;2023-03-04T01:46:53;102638.84;;;5.98;76.79
65758;BME280;52495;52.208;5.158;2023-03-04T01:49:23;102627.22;;;6.10;74.72
65758;BME280;52495;52.208;5.158;2023-03-04T01:51:52;102619.09;;;5.96;75.65
65758;BME280;52495;52.208;5.158;2023-03-04T01:54:21;102624.22;;;5.96;75.24
65758;BME280;52495;52.208;5.158;2023-03-04T01:56:50;102618.59;;;6.06;74.88
65758;BME280;52495;52.208;5.158;2023-03-04T01:59:19;102617.47;;;5.98;74.43
65758;BME280;52495;52.208;5.158;2023-03-04T02:01:49;102614.69;;;5.91;74.54
65758;BME280;52495;52.208;5.158;2023-03-04T02:04:18;102610.94;;;6.07;73.79
65758;BME280;52495;52.208;5.158;2023-03-04T02:06:46;102606.47;;;6.00;73.94
65758;BME280;52495;52.208;5.158;2023-03-04T02:09:15;102599.00;;;6.08;73.30
65758;BME280;52495;52.208;5.158;2023-03-04T02:11:43;102598.03;;;6.04;73.72
65758;BME280;52495;52.208;5.158;2023-03-04T02:14:10;102596.94;;;5.98;74.12
65758;BME280;52495;52.208;5.158;2023-03-04T02:16:38;102597.69;;;5.93;74.52
65758;BME280;52495;52.208;5.158;2023-03-04T02:19:12;102591.94;;;6.01;74.32
65758;BME280;52495;52.208;5.158;2023-03-04T02:21:41;102585.72;;;5.94;74.14
65758;BME280;52495;52.208;5.158;2023-03-04T02:24:14;102595.75;;;5.86;74.84
65758;BME280;52495;52.208;5.158;2023-03-04T02:26:45;102589.06;;;5.91;74.76
65758;BME280;52495;52.208;5.158;2023-03-04T02:29:15;102584.13;;;5.98;74.97
65758;BME280;52495;52.208;5.158;2023-03-04T02:31:43;102578.00;;;5.92;75.71
65758;BME280;52495;52.208;5.158;2023-03-04T02:34:12;102574.03;;;6.02;74.67
65758;BME280;52495;52.208;5.158;2023-03-04T02:36:40;102573.91;;;5.99;75.09
65758;BME280;52495;52.208;5.158;2023-03-04T02:39:12;102565.09;;;5.91;74.36
65758;BME280;52495;52.208;5.158;2023-03-04T02:41:40;102566.00;;;5.91;75.02
65758;BME280;52495;52.208;5.158;2023-03-04T02:44:16;102566.69;;;5.86;74.68
65758;BME280;52495;52.208;5.158;2023-03-04T02:46:45;102571.22;;;5.95;74.31
65758;BME280;52495;52.208;5.158;2023-03-04T02:49:12;102560.78;;;5.88;75.29
65758;BME280;52495;52.208;5.158;2023-03-04T02:51:39;102559.22;;;5.93;74.91
65758;BME280;52495;52.208;5.158;2023-03-04T02:54:14;102556.59;;;5.92;74.73
65758;BME280;52495;52.208;5.158;2023-03-04T02:56:44;102552.38;;;5.94;74.41
65758;BME280;52495;52.208;5.158;2023-03-04T02:59:11;102556.81;;;5.71;75.98
65758;BME280;52495;52.208;5.158;2023-03-04T03:01:39;102558.25;;;5.90;75.19
65758;BME280;52495;52.208;5.158;2023-03-04T03:04:06;102558.19;;;5.88;75.06
65758;BME280;52495;52.208;5.158;2023-03-04T03:06:33;102556.66;;;5.93;75.43
65758;BME280;52495;52.208;5.158;2023-03-04T03:08:59;102553.88;;;5.86;75.42
65758;BME280;52495;52.208;5.158;2023-03-04T03:11:27;102545.88;;;6.04;74.83
65758;BME280;52495;52.208;5.158;2023-03-04T03:13:54;102543.78;;;5.92;75.04
65758;BME280;52495;52.208;5.158;2023-03-04T03:16:22;102549.91;;;5.97;75.97
65758;BME280;52495;52.208;5.158;2023-03-04T03:18:50;102540.59;;;5.99;75.85
65758;BME280;52495;52.208;5.158;2023-03-04T03:21:17;102550.03;;;6.00;75.82
65758;BME280;52495;52.208;5.158;2023-03-04T03:23:44;102545.72;;;5.99;75.80
65758;BME280;52495;52.208;5.158;2023-03-04T03:26:11;102544.81;;;5.99;75.97
65758;BME280;52495;52.208;5.158;2023-03-04T03:28:38;102545.06;;;6.05;76.75
65758;BME280;52495;52.208;5.158;2023-03-04T03:31:05;102546.44;;;5.95;76.80
65758;BME280;52495;52.208;5.158;2023-03-04T03:33:32;102540.84;;;6.07;76.20
65758;BME280;52495;52.208;5.158;2023-03-04T03:36:00;102544.47;;;5.86;77.42
65758;BME280;52495;52.208;5.158;2023-03-04T03:38:27;102534.50;;;5.96;77.80
65758;BME280;52495;52.208;5.158;2023-03-04T03:40:54;102536.28;;;5.98;78.05
65758;BME280;52495;52.208;5.158;2023-03-04T03:43:21;102545.47;;;5.91;77.68
65758;BME280;52495;52.208;5.158;2023-03-04T03:45:48;102539.06;;;5.77;78.83
65758;BME280;52495;52.208;5.158;2023-03-04T03:48:16;102542.09;;;5.92;78.59
65758;BME280;52495;52.208;5.158;2023-03-04T03:50:43;102542.59;;;5.81;78.95
65758;BME280;52495;52.208;5.158;2023-03-04T03:53:11;102536.13;;;5.65;79.59
65758;BME280;52495;52.208;5.158;2023-03-04T03:55:38;102542.38;;;5.73;78.88
65758;BME280;52495;52.208;5.158;2023-03-04T03:58:05;102535.94;;;5.86;79.02
65758;BME280;52495;52.208;5.158;2023-03-04T04:00:32;102543.19;;;5.72;79.10
65758;BME280;52495;52.208;5.158;2023-03-04T04:02:59;102534.91;;;5.81;79.61
65758;BME280;52495;52.208;5.158;2023-03-04T04:05:26;102542.25;;;5.70;80.22
65758;BME280;52495;52.208;5.158;2023-03-04T04:07:52;102542.69;;;5.84;80.00
65758;BME280;52495;52.208;5.158;2023-03-04T04:10:21;102545.03;;;5.76;80.69
65758;BME280;52495;52.208;5.158;2023-03-04T04:12:47;102540.06;;;5.82;80.25
65758;BME280;52495;52.208;5.158;2023-03-04T04:15:14;102537.38;;;5.77;80.86
65758;BME280;52495;52.208;5.158;2023-03-04T04:17:41;102539.59;;;5.67;81.42
65758;BME280;52495;52.208;5.158;2023-03-04T04:20:09;102538.88;;;5.71;82.08
65758;BME280;52495;52.208;5.158;2023-03-04T04:22:36;102538.19;;;5.76;81.76
65758;BME280;52495;52.208;5.158;2023-03-04T04:25:03;102544.13;;;5.75;81.09
65758;BME280;52495;52.208;5.158;2023-03-04T04:27:31;102544.13;;;5.75;81.81
65758;BME280;52495;52.208;5.158;2023-03-04T04:29:58;102549.22;;;5.74;82.40
65758;BME280;52495;52.208;5.158;2023-03-04T04:32:25;102544.25;;;5.51;82.95
65758;BME280;52495;52.208;5.158;2023-03-04T04:34:52;102546.00;;;5.52;82.91
65758;BME280;52495;52.208;5.158;2023-03-04T04:37:18;102547.69;;;5.52;83.21
65758;BME280;52495;52.208;5.158;2023-03-04T04:39:45;102546.47;;;5.68;82.32
65758;BME280;52495;52.208;5.158;2023-03-04T04:42:12;102544.91;;;5.71;82.40
65758;BME280;52495;52.208;5.158;2023-03-04T04:44:40;102541.44;;;5.71;82.23
65758;BME280;52495;52.208;5.158;2023-03-04T04:47:07;102544.00;;;5.71;82.08
65758;BME280;52495;52.208;5.158;2023-03-04T04:49:34;102547.63;;;5.77;82.53
65758;BME280;52495;52.208;5.158;2023-03-04T04:52:01;102543.06;;;5.67;83.48
65758;BME280;52495;52.208;5.158;2023-03-04T04:54:28;102549.13;;;5.71;83.22
65758;BME280;52495;52.208;5.158;2023-03-04T04:56:55;102542.25;;;5.70;82.96
65758;BME280;52495;52.208;5.158;2023-03-04T04:59:22;102543.88;;;5.66;83.10
65758;BME280;52495;52.208;5.158;2023-03-04T05:01:50;102538.31;;;5.81;82.66
65758;BME280;52495;52.208;5.158;2023-03-04T05:04:17;102544.38;;;5.83;82.39
65758;BME280;52495;52.208;5.158;2023-03-04T05:06:44;102542.03;;;5.91;82.82
65758;BME280;52495;52.208;5.158;2023-03-04T05:09:11;102538.91;;;5.72;82.59
65758;BME280;52495;52.208;5.158;2023-03-04T05:11:38;102537.84;;;5.66;83.12
65758;BME280;52495;52.208;5.158;2023-03-04T05:14:04;102548.19;;;5.67;83.79
65758;BME280;52495;52.208;5.158;2023-03-04T05:16:31;102541.81;;;5.83;83.03
65758;BME280;52495;52.208;5.158;2023-03-04T05:18:59;102550.41;;;5.56;83.38
65758;BME280;52495;52.208;5.158;2023-03-04T05:21:26;102541.44;;;5.71;83.51
65758;BME280;52495;52.208;5.158;2023-03-04T05:23:53;102549.66;;;5.88;82.33
65758;BME280;52495;52.208;5.158;2023-03-04T05:26:20;102554.41;;;5.48;84.32
65758;BME280;52495;52.208;5.158;2023-03-04T05:28:46;102548.69;;;5.57;83.82
65758;BME280;52495;52.208;5.158;2023-03-04T05:31:13;102554.25;;;5.71;83.43
65758;BME280;52495;52.208;5.158;2023-03-04T05:33:40;102550.41;;;5.56;84.55
65758;BME280;52495;52.208;5.158;2023-03-04T05:36:09;102547.81;;;5.55;84.50
65758;BME280;52495;52.208;5.158;2023-03-04T05:38:35;102554.50;;;5.51;85.62
65758;BME280;52495;52.208;5.158;2023-03-04T05:41:04;102552.00;;;5.53;85.74
65758;BME280;52495;52.208;5.158;2023-03-04T05:43:31;102552.81;;;5.52;85.23
65758;BME280;52495;52.208;5.158;2023-03-04T05:46:00;102544.50;;;5.59;84.79
65758;BME280;52495;52.208;5.158;2023-03-04T05:48:27;102544.66;;;5.64;84.78
65758;BME280;52495;52.208;5.158;2023-03-04T05:50:54;102544.81;;;5.70;84.44
65758;BME280;52495;52.208;5.158;2023-03-04T05:53:23;102550.25;;;5.52;84.89
65758;BME280;52495;52.208;5.158;2023-03-04T05:55:50;102553.53;;;5.47;85.84
65758;BME280;52495;52.208;5.158;2023-03-04T05:58:17;102547.84;;;5.56;84.74
65758;BME280;52495;52.208;5.158;2023-03-04T06:00:44;102549.47;;;5.54;84.96
65758;BME280;52495;52.208;5.158;2023-03-04T06:03:13;102542.84;;;5.61;85.35
65758;BME280;52495;52.208;5.158;2023-03-04T06:05:41;102547.13;;;5.60;85.47
65758;BME280;52495;52.208;5.158;2023-03-04T06:08:08;102544.25;;;5.51;86.26
65758;BME280;52495;52.208;5.158;2023-03-04T06:10:37;102543.78;;;5.63;85.73
65758;BME280;52495;52.208;5.158;2023-03-04T06:13:04;102533.38;;;5.58;86.41
65758;BME280;52495;52.208;5.158;2023-03-04T06:15:31;102542.13;;;5.65;86.80
65758;BME280;52495;52.208;5.158;2023-03-04T06:17:57;102536.81;;;5.59;88.04
65758;BME280;52495;52.208;5.158;2023-03-04T06:20:24;102535.75;;;5.52;89.11
65758;BME280;52495;52.208;5.158;2023-03-04T06:22:51;102537.69;;;5.59;88.72
65758;BME280;52495;52.208;5.158;2023-03-04T06:25:18;102536.06;;;5.61;87.97
65758;BME280;52495;52.208;5.158;2023-03-04T06:27:47;102539.84;;;5.47;89.39
65758;BME280;52495;52.208;5.158;2023-03-04T06:30:14;102540.25;;;5.59;89.47
65758;BME280;52495;52.208;5.158;2023-03-04T06:32:41;102535.94;;;5.58;88.54
65758;BME280;52495;52.208;5.158;2023-03-04T06:35:10;102533.56;;;5.65;88.65
65758;BME280;52495;52.208;5.158;2023-03-04T06:37:37;102543.78;;;5.63;88.23
65758;BME280;52495;52.208;5.158;2023-03-04T06:40:05;102554.13;;;5.66;88.27
65758;BME280;52495;52.208;5.158;2023-03-04T06:42:33;102548.19;;;5.67;88.70
65758;BME280;52495;52.208;5.158;2023-03-04T06:45:01;102553.34;;;5.69;88.17
65758;BME280;52495;52.208;5.158;2023-03-04T06:47:27;102555.06;;;5.70;88.50
65758;BME280;52495;52.208;5.158;2023-03-04T06:49:54;102558.56;;;5.72;87.94
65758;BME280;52495;52.208;5.158;2023-03-04T06:52:21;102554.22;;;5.69;88.53
65758;BME280;52495;52.208;5.158;2023-03-04T06:54:48;102562.84;;;5.71;87.34
65758;BME280;52495;52.208;5.158;2023-03-04T06:57:15;102560.19;;;5.97;86.80
65758;BME280;52495;52.208;5.158;2023-03-04T06:59:42;102566.06;;;5.66;88.56
65758;BME280;52495;52.208;5.158;2023-03-04T07:02:11;102574.31;;;5.57;89.41
65758;BME280;52495;52.208;5.158;2023-03-04T07:04:38;102560.44;;;5.50;89.57
65758;BME280;52495;52.208;5.158;2023-03-04T07:07:05;102563.47;;;5.66;88.83
65758;BME280;52495;52.208;5.158;2023-03-04T07:09:32;102563.47;;;5.38;89.59
65758;BME280;52495;52.208;5.158;2023-03-04T07:11:59;102567.28;;;5.50;89.35
65758;BME280;52495;52.208;5.158;2023-03-04T07:14:26;102569.13;;;5.54;89.71
65758;BME280;52495;52.208;5.158;2023-03-04T07:17:08;102573.56;;;5.59;89.36
65758;BME280;52495;52.208;5.158;2023-03-04T07:19:37;102563.69;;;5.72;88.82
65758;BME280;52495;52.208;5.158;2023-03-04T07:22:03;102563.09;;;5.81;88.71
65758;BME280;52495;52.208;5.158;2023-03-04T07:24:30;102569.53;;;5.68;88.59
65758;BME280;52495;52.208;5.158;2023-03-04T07:26:57;102561.69;;;5.61;88.83
65758;BME280;52495;52.208;5.158;2023-03-04T07:29:23;102566.22;;;5.70;89.47
65758;BME280;52495;52.208;5.158;2023-03-04T07:31:50;102572.03;;;5.93;88.68
65758;BME280;52495;52.208;5.158;2023-03-04T07:34:17;102570.19;;;5.89;88.28
65758;BME280;52495;52.208;5.158;2023-03-04T07:36:45;102567.28;;;5.77;89.22
65758;BME280;52495;52.208;5.158;2023-03-04T07:39:12;102567.53;;;5.86;88.73
65758;BME280;52495;52.208;5.158;2023-03-04T07:41:39;102569.78;;;6.03;88.08
65758;BME280;52495;52.208;5.158;2023-03-04T07:44:07;102574.81;;;6.00;88.36
65758;BME280;52495;52.208;5.158;2023-03-04T07:46:34;102572.06;;;5.95;89.14
65758;BME280;52495;52.208;5.158;2023-03-04T07:49:01;102574.16;;;6.07;87.80
65758;BME280;52495;52.208;5.158;2023-03-04T07:51:28;102577.47;;;6.03;88.57
65758;BME280;52495;52.208;5.158;2023-03-04T07:53:58;102571.81;;;5.86;89.15
65758;BME280;52495;52.208;5.158;2023-03-04T07:56:28;102572.97;;;5.96;90.30
65758;BME280;52495;52.208;5.158;2023-03-04T07:58:55;102584.84;;;5.93;90.09
65758;BME280;52495;52.208;5.158;2023-03-04T08:01:25;102580.13;;;6.06;89.20
65758;BME280;52495;52.208;5.158;2023-03-04T08:03:52;102589.66;;;6.10;89.08
65758;BME280;52495;52.208;5.158;2023-03-04T08:06:20;102587.03;;;6.08;88.32
65758;BME280;52495;52.208;5.158;2023-03-04T08:08:47;102597.38;;;6.12;89.54
65758;BME280;52495;52.208;5.158;2023-03-04T08:11:18;102583.59;;;6.08;89.36
65758;BME280;52495;52.208;5.158;2023-03-04T08:13:46;102585.38;;;6.11;90.04
65758;BME280;52495;52.208;5.158;2023-03-04T08:16:13;102589.53;;;6.36;88.19
65758;BME280;52495;52.208;5.158;2023-03-04T08:18:41;102582.31;;;6.22;89.62
65758;BME280;52495;52.208;5.158;2023-03-04T08:21:09;102590.41;;;6.07;89.34
65758;BME280;52495;52.208;5.158;2023-03-04T08:23:36;102585.88;;;6.28;89.36
65758;BME280;52495;52.208;5.158;2023-03-04T08:26:09;102588.16;;;6.18;89.65
65758;BME280;52495;52.208;5.158;2023-03-04T08:28:37;102586.94;;;6.34;89.16
65758;BME280;52495;52.208;5.158;2023-03-04T08:31:05;102595.47;;;6.35;89.11
65758;BME280;52495;52.208;5.158;2023-03-04T08:33:32;102601.38;;;6.31;89.53
65758;BME280;52495;52.208;5.158;2023-03-04T08:35:59;102595.41;;;6.32;89.66
65758;BME280;52495;52.208;5.158;2023-03-04T08:38:26;102588.53;;;6.61;88.25
65758;BME280;52495;52.208;5.158;2023-03-04T08:40:53;102590.16;;;6.58;87.75
65758;BME280;52495;52.208;5.158;2023-03-04T08:43:20;102581.75;;;6.63;87.40
65758;BME280;52495;52.208;5.158;2023-03-04T08:45:49;102582.34;;;6.55;88.36
65758;BME280;52495;52.208;5.158;2023-03-04T08:48:16;102591.19;;;6.64;87.72
65758;BME280;52495;52.208;5.158;2023-03-04T08:50:43;102589.72;;;6.74;87.41
65758;BME280;52495;52.208;5.158;2023-03-04T08:53:10;102585.59;;;6.79;87.21
65758;BME280;52495;52.208;5.158;2023-03-04T08:55:38;102587.16;;;6.74;88.12
65758;BME280;52495;52.208;5.158;2023-03-04T08:58:05;102586.78;;;6.92;87.80
65758;BME280;52495;52.208;5.158;2023-03-04T09:00:32;102593.34;;;6.81;88.79
65758;BME280;52495;52.208;5.158;2023-03-04T09:03:00;102589.22;;;6.88;89.09
65758;BME280;52495;52.208;5.158;2023-03-04T09:05:28;102598.66;;;6.89;89.44
65758;BME280;52495;52.208;5.158;2023-03-04T09:07:55;102594.34;;;6.86;89.61
65758;BME280;52495;52.208;5.158;2023-03-04T09:10:22;102587.56;;;6.90;90.37
65758;BME280;52495;52.208;5.158;2023-03-04T09:12:49;102589.91;;;6.80;90.10
65758;BME280;52495;52.208;5.158;2023-03-04T09:15:16;102584.84;;;6.83;90.76
65758;BME280;52495;52.208;5.158;2023-03-04T09:17:43;102588.31;;;6.86;90.87
65758;BME280;52495;52.208;5.158;2023-03-04T09:20:12;102586.25;;;6.72;92.50
65758;BME280;52495;52.208;5.158;2023-03-04T09:22:39;102589.34;;;6.60;94.17
65758;BME280;52495;52.208;5.158;2023-03-04T09:25:07;102585.13;;;6.62;93.48
65758;BME280;52495;52.208;5.158;2023-03-04T09:27:36;102581.19;;;6.74;93.24
65758;BME280;52495;52.208;5.158;2023-03-04T09:30:03;102578.88;;;6.84;92.41
65758;BME280;52495;52.208;5.158;2023-03-04T09:32:30;102569.50;;;6.85;92.17
65758;BME280;52495;52.208;5.158;2023-03-04T09:34:56;102581.00;;;7.01;91.36
65758;BME280;52495;52.208;5.158;2023-03-04T09:37:25;102579.41;;;7.05;90.34
65758;BME280;52495;52.208;5.158;2023-03-04T09:39:51;102581.44;;;7.18;89.44
65758;BME280;52495;52.208;5.158;2023-03-04T09:42:24;102574.22;;;7.03;91.34
65758;BME280;52495;52.208;5.158;2023-03-04T09:44:52;102581.19;;;7.07;90.79
65758;BME280;52495;52.208;5.158;2023-03-04T09:47:21;102578.69;;;7.10;91.06
65758;BME280;52495;52.208;5.158;2023-03-04T09:49:54;102575.31;;;7.13;91.17
65758;BME280;52495;52.208;5.158;2023-03-04T09:52:33;102573.13;;;7.28;91.13
65758;BME280;52495;52.208;5.158;2023-03-04T09:55:07;102578.16;;;7.24;90.33
65758;BME280;52495;52.208;5.158;2023-03-04T09:57:46;102568.03;;;7.30;89.87
65758;BME280;52495;52.208;5.158;2023-03-04T10:00:15;102562.09;;;7.33;90.01
65758;BME280;52495;52.208;5.158;2023-03-04T10:02:55;102563.69;;;7.27;91.19
65758;BME280;52495;52.208;5.158;2023-03-04T10:05:24;102553.81;;;7.44;90.47
65758;BME280;52495;52.208;5.158;2023-03-04T10:07:57;102557.41;;;7.51;89.76
65758;BME280;52495;52.208;5.158;2023-03-04T10:10:28;102553.63;;;7.73;88.38
65758;BME280;52495;52.208;5.158;2023-03-04T10:12:56;102557.16;;;7.79;88.38
65758;BME280;52495;52.208;5.158;2023-03-04T10:15:32;102553.84;;;7.84;89.26
65758;BME280;52495;52.208;5.158;2023-03-04T10:18:02;102553.84;;;7.83;89.91
65758;BME280;52495;52.208;5.158;2023-03-04T10:20:46;102553.38;;;7.63;90.52
65758;BME280;52495;52.208;5.158;2023-03-04T10:23:20;102554.63;;;7.42;91.29
65758;BME280;52495;52.208;5.158;2023-03-04T10:25:48;102549.91;;;7.24;93.75
65758;BME280;52495;52.208;5.158;2023-03-04T10:28:22;102558.72;;;7.35;94.17
65758;BME280;52495;52.208;5.158;2023-03-04T10:30:56;102563.88;;;7.35;94.77
65758;BME280;52495;52.208;5.158;2023-03-04T10:33:26;102556.31;;;7.41;95.34
65758;BME280;52495;52.208;5.158;2023-03-04T10:35:59;102556.41;;;7.44;95.97
65758;BME280;52495;52.208;5.158;2023-03-04T10:38:30;102558.13;;;7.46;96.25
65758;BME280;52495;52.208;5.158;2023-03-04T10:40:58;102554.44;;;7.34;97.30
65758;BME280;52495;52.208;5.158;2023-03-04T10:43:25;102558.81;;;7.03;99.34
65758;BME280;52495;52.208;5.158;2023-03-04T10:45:54;102548.47;;;7.00;99.86
65758;BME280;52495;52.208;5.158;2023-03-04T10:48:24;102552.56;;;7.27;99.53
65758;BME280;52495;52.208;5.158;2023-03-04T10:50:51;102548.97;;;7.20;100.00
65758;BME280;52495;52.208;5.158;2023-03-04T10:53:26;102551.09;;;7.38;100.00
65758;BME280;52495;52.208;5.158;2023-03-04T10:55:55;102547.41;;;7.64;98.29
65758;BME280;52495;52.208;5.158;2023-03-04T10:58:22;102547.69;;;7.76;97.85
65758;BME280;52495;52.208;5.158;2023-03-04T11:00:59;102542.34;;;7.67;96.33
65758;BME280;52495;52.208;5.158;2023-03-04T11:03:30;102546.56;;;7.65;95.34
65758;BME280;52495;52.208;5.158;2023-03-04T11:06:06;102538.25;;;7.77;93.45
65758;BME280;52495;52.208;5.158;2023-03-04T11:08:33;102547.97;;;7.88;95.43
65758;BME280;52495;52.208;5.158;2023-03-04T11:11:01;102547.63;;;7.74;94.69
65758;BME280;52495;52.208;5.158;2023-03-04T11:13:29;102562.63;;;7.54;95.39
65758;BME280;52495;52.208;5.158;2023-03-04T11:16:00;102546.69;;;7.33;96.64
65758;BME280;52495;52.208;5.158;2023-03-04T11:18:30;102551.56;;;7.22;97.55
65758;BME280;52495;52.208;5.158;2023-03-04T11:21:00;102542.34;;;7.30;98.37
65758;BME280;52495;52.208;5.158;2023-03-04T11:23:34;102546.53;;;7.26;97.33
65758;BME280;52495;52.208;5.158;2023-03-04T11:26:08;102539.47;;;7.18;96.83
65758;BME280;52495;52.208;5.158;2023-03-04T11:28:41;102540.63;;;7.31;96.54
65758;BME280;52495;52.208;5.158;2023-03-04T11:31:13;102533.75;;;7.28;96.02
65758;BME280;52495;52.208;5.158;2023-03-04T11:33:44;102534.78;;;7.36;96.86
65758;BME280;52495;52.208;5.158;2023-03-04T11:36:30;102525.50;;;7.43;96.04
65758;BME280;52495;52.208;5.158;2023-03-04T11:39:01;102526.59;;;7.53;97.43
65758;BME280;52495;52.208;5.158;2023-03-04T11:41:32;102517.78;;;7.80;94.68
65758;BME280;52495;52.208;5.158;2023-03-04T11:44:02;102528.97;;;7.83;91.54
65758;BME280;52495;52.208;5.158;2023-03-04T11:46:54;102527.50;;;7.95;89.32
65758;BME280;52495;52.208;5.158;2023-03-04T11:52:47;102517.47;;;8.07;86.53
65758;BME280;52495;52.208;5.158;2023-03-04T11:55:35;102525.88;;;8.00;87.26
65758;BME280;52495;52.208;5.158;2023-03-04T11:58:20;102522.06;;;7.81;89.74
65758;BME280;52495;52.208;5.158;2023-03-04T12:00:54;102517.59;;;7.72;91.74
65758;BME280;52495;52.208;5.158;2023-03-04T12:03:44;102531.13;;;7.65;91.58
65758;BME280;52495;52.208;5.158;2023-03-04T12:06:23;102521.56;;;7.57;92.73
65758;BME280;52495;52.208;5.158;2023-03-04T12:09:02;102520.56;;;7.51;93.13
65758;BME280;52495;52.208;5.158;2023-03-04T12:11:38;102525.41;;;7.38;93.01
65758;BME280;52495;52.208;5.158;2023-03-04T12:14:26;102525.31;;;7.34;93.48
65758;BME280;52495;52.208;5.158;2023-03-04T12:17:13;102521.63;;;7.22;94.15
65758;BME280;52495;52.208;5.158;2023-03-04T12:20:01;102512.84;;;7.14;94.95
65758;BME280;52495;52.208;5.158;2023-03-04T12:22:42;102521.44;;;7.14;95.18
65758;BME280;52495;52.208;5.158;2023-03-04T12:25:36;102509.34;;;7.10;95.30
65758;BME280;52495;52.208;5.158;2023-03-04T12:28:24;102501.84;;;7.20;93.44
65758;BME280;52495;52.208;5.158;2023-03-04T12:34:29;102500.09;;;7.17;92.24
65758;BME280;52495;52.208;5.158;2023-03-04T12:37:07;102495.31;;;7.33;88.98
65758;BME280;52495;52.208;5.158;2023-03-04T12:39:39;102488.25;;;7.24;89.11
65758;BME280;52495;52.208;5.158;2023-03-04T12:42:17;102485.19;;;7.39;88.29
65758;BME280;52495;52.208;5.158;2023-03-04T12:44:57;102477.59;;;7.45;87.41
65758;BME280;52495;52.208;5.158;2023-03-04T12:47:35;102483.28;;;7.71;83.94
65758;BME280;52495;52.208;5.158;2023-03-04T12:50:26;102477.25;;;7.69;85.36
65758;BME280;52495;52.208;5.158;2023-03-04T12:53:00;102470.75;;;7.87;82.06
65758;BME280;52495;52.208;5.158;2023-03-04T12:55:36;102478.69;;;7.98;80.63
65758;BME280;52495;52.208;5.158;2023-03-04T12:58:03;102478.47;;;7.87;80.57
65758;BME280;52495;52.208;5.158;2023-03-04T13:00:43;102477.25;;;7.69;81.46
65758;BME280;52495;52.208;5.158;2023-03-04T13:03:18;102485.53;;;7.56;82.11
65758;BME280;52495;52.208;5.158;2023-03-04T13:06:00;102487.25;;;7.55;82.96
65758;BME280;52495;52.208;5.158;2023-03-04T13:08:36;102477.59;;;7.45;83.58
65758;BME280;52495;52.208;5.158;2023-03-04T13:14:04;102469.69;;;7.37;81.62
65758;BME280;52495;52.208;5.158;2023-03-04T13:16:33;102477.63;;;7.47;82.05
65758;BME280;52495;52.208;5.158;2023-03-04T13:19:02;102465.63;;;7.46;81.39
65758;BME280;52495;52.208;5.158;2023-03-04T13:21:31;102458.88;;;7.51;80.64